Beauharnois, Canada
Current Conditions -  °F | °C
As of 3:00 PM on Wednesday 28 Jan 2015 (Local Time) from CYUL Reporting Station
Few Clouds Few Clouds  
Wind Chill:   Ceiling: Unl
Heat Index: 16°   Visibility: 30mi
Dew Point: -2°   Wind: 12mph
Humidity: 45%   Direction: 210°SSW
Pressure: 30.19"   Gusts: NA
Location:  45.32°N, 73.87°W
Report Text: CYUL 282000Z 21010KT 30SM FEW160 M09/M19 A3019 RMK AC1 AC TR SLP227
Loading
Personal Weather Stations






























Interactive Weather Map New forecast layout! Learn more

10-Day Weather Forecast

Advertisements
Track Severe Weather on mobile